Time;durP1;ratioP1;P1;durP2;ratioP2;P2;SDS_P1;SDS_P2;PMS_P1;PMS_P2;Temp;Humidity;BMP_temperature;BMP_pressure;BME280_temperature;BME280_humidity;BME280_pressure;Samples;Min_cycle;Max_cycle;Signal;HPM_P1;HPM_P2
2024/02/28 00:00:36;;;;;;;75.90;34.90;;;;;;;-0.64;100.00;101898.94;105990;1258;60550;-85
2024/02/28 00:03:16;;;;;;;74.40;32.20;;;;;;;-0.71;100.00;101893.13;106257;1259;60416;-85
2024/02/28 00:05:56;;;;;;;70.60;32.90;;;;;;;-0.77;100.00;101894.64;106057;1263;73877;-85
2024/02/28 00:08:30;;;;;;;65.40;29.90;;;;;;;-0.78;100.00;101891.73;106072;1258;68342;-84
2024/02/28 00:11:04;;;;;;;70.60;30.90;;;;;;;-0.77;100.00;101892.38;105989;1259;71122;-87
2024/02/28 00:13:44;;;;;;;64.10;28.70;;;;;;;-0.79;100.00;101890.83;106241;1257;60615;-86
2024/02/28 00:16:23;;;;;;;63.90;27.50;;;;;;;-0.81;100.00;101891.40;106263;1259;60316;-88
2024/02/28 00:18:57;;;;;;;50.20;25.00;;;;;;;-0.83;100.00;101891.74;105899;1259;73441;-89
2024/02/28 00:21:31;;;;;;;54.10;24.80;;;;;;;-0.87;100.00;101892.41;106010;1257;69456;-88
2024/02/28 00:24:12;;;;;;;55.00;26.50;;;;;;;-0.87;100.00;101888.38;106127;1257;71352;-88
2024/02/28 00:26:51;;;;;;;53.10;23.90;;;;;;;-0.90;100.00;101892.27;106034;1259;60502;-88
2024/02/28 00:29:25;;;;;;;50.90;23.80;;;;;;;-0.89;100.00;101890.44;106192;1258;60549;-87
2024/02/28 00:31:59;;;;;;;55.70;26.30;;;;;;;-0.94;100.00;101895.39;106135;1262;72645;-88
2024/02/28 00:34:39;;;;;;;56.20;26.50;;;;;;;-0.98;100.00;101896.45;106194;1258;67366;-88
2024/02/28 00:37:12;;;;;;;67.20;28.60;;;;;;;-1.01;100.00;101899.59;106056;1258;72726;-88
2024/02/28 00:39:46;;;;;;;71.40;30.90;;;;;;;-1.03;100.00;101900.54;106441;1260;60951;-88
2024/02/28 00:42:20;;;;;;;111.50;51.10;;;;;;;-1.06;100.00;101895.57;105918;1261;60445;-88
2024/02/28 00:45:00;;;;;;;112.00;48.30;;;;;;;-1.04;100.00;101896.91;106152;1259;72560;-88
2024/02/28 00:47:34;;;;;;;98.20;43.20;;;;;;;-1.04;100.00;101899.13;106062;1257;67183;-88
2024/02/28 00:50:08;;;;;;;113.60;51.80;;;;;;;-1.04;100.00;101896.86;105833;1259;71257;-87
2024/02/28 00:52:43;;;;;;;127.70;56.10;;;;;;;-1.02;100.00;101899.40;106045;1257;60403;-88
2024/02/28 00:55:23;;;;;;;112.90;51.90;;;;;;;-1.01;100.00;101903.02;105963;1263;60420;-88
2024/02/28 00:58:03;;;;;;;111.60;47.70;;;;;;;-1.05;100.00;101899.52;105976;1260;73873;-88
2024/02/28 01:00:36;;;;;;;125.10;54.50;;;;;;;-1.03;100.00;101894.33;106284;1261;67095;-88
2024/02/28 01:03:13;;;;;;;143.70;63.10;;;;;;;-0.98;100.00;101893.90;106045;1263;71435;-88
2024/02/28 01:05:55;;;;;;;99.10;41.90;;;;;;;-0.99;100.00;101893.19;105946;1257;60577;-88
2024/02/28 01:08:34;;;;;;;87.20;37.50;;;;;;;-1.02;100.00;101886.82;106247;1257;60514;-87
2024/02/28 01:11:08;;;;;;;85.00;37.40;;;;;;;-1.15;100.00;101894.69;106111;1259;74262;-88
2024/02/28 01:13:42;;;;;;;69.70;33.10;;;;;;;-1.20;100.00;101892.97;106038;1259;67446;-87
2024/02/28 01:16:22;;;;;;;74.40;36.30;;;;;;;-1.17;100.00;101895.64;106203;1260;71461;-88
2024/02/28 01:19:02;;;;;;;78.10;36.60;;;;;;;-1.21;100.00;101899.82;106125;1259;60548;-88
2024/02/28 01:21:35;;;;;;;63.60;29.80;;;;;;;-1.22;100.00;101897.23;106290;1258;60387;-88
2024/02/28 01:24:08;;;;;;;60.20;26.70;;;;;;;-1.16;100.00;101901.23;106135;1259;74808;-88
2024/02/28 01:26:47;;;;;;;55.10;25.70;;;;;;;-1.16;100.00;101899.96;105994;1260;67699;-87
2024/02/28 01:29:20;;;;;;;58.70;27.20;;;;;;;-1.14;100.00;101897.14;106020;1259;72748;-88
2024/02/28 01:31:48;;;;;;;61.80;29.00;;;;;;;-1.11;100.00;101894.66;106030;1258;61242;-88
2024/02/28 01:34:19;;;;;;;54.50;26.60;;;;;;;-1.11;100.00;101894.09;106159;1257;60532;-87
2024/02/28 01:36:57;;;;;;;51.70;23.80;;;;;;;-1.11;100.00;101891.27;106190;1261;73849;-88
2024/02/28 01:39:31;;;;;;;51.80;23.50;;;;;;;-1.15;100.00;101891.65;106075;1260;68587;-89
2024/02/28 01:41:59;;;;;;;53.50;24.40;;;;;;;-1.14;100.00;101889.40;106127;1260;72660;-88
2024/02/28 01:44:29;;;;;;;50.50;23.30;;;;;;;-1.12;100.00;101888.52;106128;1264;60475;-87
2024/02/28 01:47:09;;;;;;;52.80;22.90;;;;;;;-1.12;100.00;101886.67;106108;1260;60437;-88
2024/02/28 01:49:42;;;;;;;47.10;22.20;;;;;;;-1.15;100.00;101893.29;106047;1261;73850;-89
2024/02/28 01:52:10;;;;;;;48.20;23.00;;;;;;;-1.17;100.00;101894.56;106119;1258;68382;-89
2024/02/28 01:54:44;;;;;;;45.00;23.00;;;;;;;-1.15;100.00;101894.90;105965;1262;221762;-88
2024/02/28 01:57:18;;;;;;;48.10;23.60;;;;;;;-1.08;100.00;101893.95;105987;1264;60535;-89
2024/02/28 01:59:54;;;;;;;46.10;23.30;;;;;;;-1.03;100.00;101897.34;106007;1258;60577;-89
2024/02/28 02:02:28;;;;;;;49.10;23.80;;;;;;;-0.98;100.00;101890.51;106351;1258;73883;-89
2024/02/28 02:04:57;;;;;;;45.80;23.10;;;;;;;-0.98;100.00;101890.73;105933;1262;67468;-89
2024/02/28 02:07:39;;;;;;;50.40;24.40;;;;;;;-0.95;100.00;101886.98;105898;1258;71664;-88
2024/02/28 02:10:13;;;;;;;67.30;32.60;;;;;;;-0.85;100.00;101885.88;106101;1262;60436;-88
2024/02/28 02:12:47;;;;;;;99.90;45.20;;;;;;;-0.84;100.00;101882.45;105910;1259;60602;-88
2024/02/28 02:15:21;;;;;;;152.80;66.00;;;;;;;-0.89;100.00;101881.79;106054;1259;73910;-88
2024/02/28 02:17:55;;;;;;;172.30;73.20;;;;;;;-0.96;100.00;101878.86;106032;1257;68860;-89
2024/02/28 02:20:30;;;;;;;127.80;60.00;;;;;;;-0.94;100.00;101877.52;106323;1262;71435;-88
2024/02/28 02:23:04;;;;;;;120.00;51.90;;;;;;;-0.87;100.00;101880.41;106002;1259;60553;-88
2024/02/28 02:25:37;;;;;;;137.00;53.50;;;;;;;-0.90;100.00;101879.03;106003;1263;60366;-89
2024/02/28 02:28:17;;;;;;;111.10;48.70;;;;;;;-0.90;100.00;101883.39;106265;1262;72579;-90
2024/02/28 02:30:51;;;;;;;111.50;44.90;;;;;;;-0.87;100.00;101884.49;106119;1259;68328;-89
2024/02/28 02:33:25;;;;;;;100.00;44.10;;;;;;;-0.82;100.00;101882.02;106143;1259;72731;-87
2024/02/28 02:36:05;;;;;;;100.00;46.80;;;;;;;-0.75;100.00;101885.55;106027;1259;60576;-88
2024/02/28 02:38:45;;;;;;;130.80;56.30;;;;;;;-0.69;100.00;101884.15;106215;1260;59518;-88
2024/02/28 02:41:13;;;;;;;127.50;53.70;;;;;;;-0.65;100.00;101882.23;106305;1259;73474;-89
2024/02/28 02:43:55;;;;;;;117.40;53.60;;;;;;;-0.66;100.00;101888.05;106011;1263;67319;-88
2024/02/28 02:46:35;;;;;;;107.70;53.80;;;;;;;-0.65;100.00;101886.34;106126;1263;71402;-89
2024/02/28 02:49:14;;;;;;;146.00;60.80;;;;;;;-0.61;100.00;101883.92;106052;1259;60472;-87
2024/02/28 02:51:43;;;;;;;150.70;63.70;;;;;;;-0.60;100.00;101885.94;106117;1259;60381;-88
2024/02/28 02:54:23;;;;;;;159.30;71.50;;;;;;;-0.59;100.00;101890.73;106097;1258;72351;-87
2024/02/28 02:57:03;;;;;;;153.00;66.10;;;;;;;-0.63;100.00;101890.83;106090;1259;68445;-89
2024/02/28 02:59:43;;;;;;;152.90;73.10;;;;;;;-0.62;100.00;101891.96;105949;1258;72657;-89
2024/02/28 03:02:11;;;;;;;161.00;71.20;;;;;;;-0.71;100.00;101893.30;106174;1259;60514;-90
2024/02/28 03:04:51;;;;;;;133.00;57.30;;;;;;;-0.64;100.00;101891.48;105962;1257;60566;-89
2024/02/28 03:07:24;;;;;;;142.60;61.00;;;;;;;-0.71;100.00;101894.88;106034;1259;72748;-90
2024/02/28 03:09:59;;;;;;;136.90;59.00;;;;;;;-0.75;100.00;101893.17;106394;1257;68823;-88
2024/02/28 03:12:32;;;;;;;127.00;56.60;;;;;;;-0.65;100.00;101893.73;106110;1263;71420;-89
2024/02/28 03:15:13;;;;;;;97.30;44.00;;;;;;;-0.60;100.00;101892.45;106206;1258;60559;-91
2024/02/28 03:17:47;;;;;;;103.40;46.80;;;;;;;-0.61;100.00;101897.41;106372;1261;59372;-89
2024/02/28 03:20:21;;;;;;;121.20;54.90;;;;;;;-0.60;100.00;101891.74;106141;1259;72080;-87
2024/02/28 03:22:58;;;;;;;154.90;68.00;;;;;;;-0.69;100.00;101894.71;106348;1258;67936;-87
2024/02/28 03:25:38;;;;;;;91.90;43.00;;;;;;;-0.69;100.00;101895.71;105996;1259;74698;-87
2024/02/28 03:28:14;;;;;;;91.70;40.70;;;;;;;-0.67;100.00;101894.10;106023;1262;60416;-84
2024/02/28 03:30:48;;;;;;;71.80;32.00;;;;;;;-0.69;100.00;101895.60;105974;1263;59241;-85
2024/02/28 03:33:17;;;;;;;95.60;41.40;;;;;;;-0.72;100.00;101899.71;106128;1259;73813;-85
2024/02/28 03:35:53;;;;;;;71.70;34.00;;;;;;;-0.72;100.00;101902.88;106247;1257;68344;-86
2024/02/28 03:38:28;;;;;;;72.60;35.80;;;;;;;-0.74;100.00;101906.19;106161;1260;71074;-86
2024/02/28 03:41:02;;;;;;;71.60;32.80;;;;;;;-0.70;100.00;101909.65;106145;1257;60559;-87
2024/02/28 03:43:31;;;;;;;63.10;29.90;;;;;;;-0.70;100.00;101908.95;106057;1259;60462;-86
2024/02/28 03:46:07;;;;;;;65.10;30.80;;;;;;;-0.66;100.00;101908.84;106161;1262;74192;-86
2024/02/28 03:48:42;;;;;;;74.00;33.10;;;;;;;-0.66;100.00;101912.40;106227;1261;68717;-86
2024/02/28 03:51:16;;;;;;;63.60;31.20;;;;;;;-0.70;100.00;101913.41;106168;1260;72682;-86
2024/02/28 03:53:44;;;;;;;69.30;33.00;;;;;;;-0.67;100.00;101912.20;106170;1260;60531;-87
2024/02/28 03:56:13;;;;;;;47.80;23.50;;;;;;;-0.71;100.00;101912.66;106078;1259;60514;-86
2024/02/28 03:58:47;;;;;;;41.30;22.40;;;;;;;-0.68;100.00;101912.92;105869;1265;73843;-86
2024/02/28 04:01:15;;;;;;;42.50;21.80;;;;;;;-0.63;100.00;101917.05;106020;1259;67116;-87
2024/02/28 04:03:46;;;;;;;38.70;18.10;;;;;;;-0.55;100.00;101910.90;105987;1259;72698;-86
2024/02/28 04:06:19;;;;;;;38.00;16.70;;;;;;;-0.52;100.00;101913.15;106093;1260;60499;-86
2024/02/28 04:08:53;;;;;;;36.50;17.20;;;;;;;-0.45;100.00;101917.55;105785;1260;60414;-86
2024/02/28 04:11:21;;;;;;;31.90;15.70;;;;;;;-0.40;100.00;101919.27;106143;1263;73027;-86
2024/02/28 04:13:50;;;;;;;34.20;15.60;;;;;;;-0.32;100.00;101916.50;106012;1259;68745;-87
2024/02/28 04:16:22;;;;;;;28.00;14.00;;;;;;;-0.20;100.00;101914.35;106170;1259;72692;-88
2024/02/28 04:18:56;;;;;;;32.30;16.20;;;;;;;-0.15;100.00;101916.07;106255;1262;60570;-87
2024/02/28 04:21:24;;;;;;;30.00;14.00;;;;;;;-0.16;100.00;101919.60;106073;1264;59165;-86
2024/02/28 04:23:53;;;;;;;31.90;12.70;;;;;;;-0.12;100.00;101924.60;106086;1257;72952;-87
2024/02/28 04:26:24;;;;;;;34.70;13.40;;;;;;;-0.01;100.00;101926.70;106212;1259;68397;-86
2024/02/28 04:28:54;;;;;;;24.90;12.60;;;;;;;0.05;100.00;101926.88;106142;1259;72959;-85
2024/02/28 04:31:23;;;;;;;27.70;13.00;;;;;;;0.13;100.00;101928.98;106159;1259;60552;-86
2024/02/28 04:33:56;;;;;;;30.10;13.10;;;;;;;0.21;100.00;101925.55;106148;1257;60351;-86
2024/02/28 04:36:30;;;;;;;31.80;15.10;;;;;;;0.25;100.00;101930.84;106136;1258;71543;-87
2024/02/28 04:38:58;;;;;;;35.40;14.70;;;;;;;0.26;100.00;101933.51;106307;1262;68489;-87
2024/02/28 04:41:28;;;;;;;34.30;13.40;;;;;;;0.25;100.00;101933.16;106164;1262;71571;-87
2024/02/28 04:43:58;;;;;;;22.70;11.90;;;;;;;0.34;100.00;101934.46;106042;1260;60569;-87
2024/02/28 04:46:34;;;;;;;26.10;11.40;;;;;;;0.38;100.00;101931.98;106118;1259;60535;-87
2024/02/28 04:49:01;;;;;;;26.40;11.00;;;;;;;0.38;100.00;101929.55;106282;1259;73759;-88
2024/02/28 04:51:31;;;;;;;22.70;11.60;;;;;;;0.40;100.00;101935.88;106348;1258;67550;-88
2024/02/28 04:54:07;;;;;;;25.40;9.60;;;;;;;0.47;100.00;101937.20;105918;1260;71472;-89
2024/02/28 04:56:42;;;;;;;19.50;9.60;;;;;;;0.49;100.00;101940.52;106205;1259;60374;-88
2024/02/28 04:59:12;;;;;;;20.80;8.90;;;;;;;0.63;100.00;101935.16;105962;1263;60630;-86
2024/02/28 05:01:45;;;;;;;16.40;8.60;;;;;;;0.75;100.00;101935.38;105996;1263;73780;-89
2024/02/28 05:04:20;;;;;;;17.20;8.30;;;;;;;0.84;100.00;101935.59;106092;1260;68539;-89
2024/02/28 05:06:48;;;;;;;18.50;8.60;;;;;;;0.93;100.00;101937.25;106160;1259;71449;-89
2024/02/28 05:09:18;;;;;;;16.00;7.20;;;;;;;0.96;100.00;101934.53;106052;1262;60300;-88
2024/02/28 05:11:47;;;;;;;20.50;7.60;;;;;;;0.95;100.00;101936.48;106190;1260;60574;-88
2024/02/28 05:14:21;;;;;;;19.50;8.60;;;;;;;1.02;100.00;101936.75;106220;1260;73818;-89
2024/02/28 05:16:49;;;;;;;20.60;8.30;;;;;;;1.06;100.00;101938.73;106265;1260;68445;-89
2024/02/28 05:19:18;;;;;;;21.50;8.10;;;;;;;1.17;100.00;101940.70;106149;1259;72659;-90
2024/02/28 05:21:53;;;;;;;16.10;7.80;;;;;;;1.24;100.00;101946.42;106143;1258;60889;-88
2024/02/28 05:24:21;;;;;;;17.10;8.30;;;;;;;1.30;100.00;101950.65;106115;1257;60505;-89
2024/02/28 05:26:51;;;;;;;15.10;7.50;;;;;;;1.33;100.00;101951.61;106091;1258;72584;-89
2024/02/28 05:29:20;;;;;;;17.30;7.20;;;;;;;1.42;100.00;101959.31;106273;1261;69228;-88
2024/02/28 05:31:48;;;;;;;17.10;8.10;;;;;;;1.58;100.00;101961.15;105997;1264;72698;-88
2024/02/28 05:34:16;;;;;;;13.30;6.50;;;;;;;1.70;100.00;101958.27;106130;1263;60650;-88
2024/02/28 05:36:46;;;;;;;19.90;7.70;;;;;;;1.76;100.00;101960.42;106006;1257;60444;-88
2024/02/28 05:39:18;;;;;;;15.50;7.30;;;;;;;1.83;100.00;101962.77;105976;1258;72638;-88
2024/02/28 05:41:46;;;;;;;;;;;;;;;1.95;100.00;101959.79;106012;1265;68322;-86
2024/02/28 05:44:14;;;;;;;18.50;7.20;;;;;;;2.03;100.00;101961.86;105995;1264;71864;-87
2024/02/28 05:46:42;;;;;;;17.30;8.50;;;;;;;2.11;100.00;101961.80;105910;1264;60594;-87
2024/02/28 05:49:10;;;;;;;16.80;7.40;;;;;;;2.18;100.00;101964.39;106077;1262;60476;-87
2024/02/28 05:51:39;;;;;;;17.70;7.70;;;;;;;2.23;100.00;101961.63;106066;1263;73894;-87
2024/02/28 05:54:11;;;;;;;20.20;8.40;;;;;;;2.31;100.00;101963.89;106204;1261;67123;-88
2024/02/28 05:56:45;;;;;;;20.00;8.30;;;;;;;2.37;100.00;101965.27;106007;1262;72895;-87
2024/02/28 05:59:13;;;;;;;16.40;7.50;;;;;;;2.44;100.00;101961.19;106079;1261;60544;-88
2024/02/28 06:01:41;;;;;;;24.00;9.30;;;;;;;2.52;100.00;101961.08;106139;1264;60429;-89
2024/02/28 06:04:12;;;;;;;17.90;8.40;;;;;;;2.59;100.00;101961.70;106080;1259;72583;-88
2024/02/28 06:06:46;;;;;;;19.40;8.20;;;;;;;2.66;100.00;101958.48;106208;1262;68585;-88
2024/02/28 06:09:14;;;;;;;21.90;10.50;;;;;;;2.71;100.00;101963.42;106276;1260;72828;-87
2024/02/28 06:11:48;;;;;;;18.80;9.30;;;;;;;2.74;100.00;101962.38;106064;1265;60464;-88
2024/02/28 06:14:22;;;;;;;20.90;8.60;;;;;;;2.78;100.00;101959.45;106096;1257;59138;-89
2024/02/28 06:16:56;;;;;;;21.80;7.70;;;;;;;2.86;100.00;101963.85;106091;1259;72662;-88
2024/02/28 06:19:30;;;;;;;25.70;9.70;;;;;;;2.95;100.00;101965.98;106034;1263;67500;-89
2024/02/28 06:22:03;;;;;;;22.50;9.40;;;;;;;2.97;100.00;101962.52;106202;1259;72739;-88
2024/02/28 06:24:36;;;;;;;21.30;10.20;;;;;;;3.09;100.00;101956.52;106041;1259;60552;-89
2024/02/28 06:27:12;;;;;;;18.50;9.20;;;;;;;3.20;100.00;101955.05;106247;1258;60486;-88
2024/02/28 06:29:44;;;;;;;18.80;8.10;;;;;;;3.27;100.00;101957.48;105912;1258;73839;-88
2024/02/28 06:32:16;;;;;;;20.80;9.50;;;;;;;3.33;100.00;101956.75;106167;1262;68732;-88
2024/02/28 06:34:49;;;;;;;20.40;9.90;;;;;;;3.43;100.00;101955.26;106067;1259;70812;-89
2024/02/28 06:37:22;;;;;;;23.70;9.60;;;;;;;3.49;100.00;101954.05;106016;1265;60734;-89
2024/02/28 06:39:55;;;;;;;21.40;8.80;;;;;;;3.53;100.00;101954.00;106024;1259;60475;-90
2024/02/28 06:42:29;;;;;;;21.60;9.30;;;;;;;3.63;100.00;101948.61;106145;1260;72589;-89
2024/02/28 06:45:03;;;;;;;16.60;8.40;;;;;;;3.78;100.00;101948.86;106015;1257;67472;-89
2024/02/28 06:47:37;;;;;;;21.70;8.90;;;;;;;3.90;100.00;101944.06;106216;1262;72968;-89
2024/02/28 06:50:11;;;;;;;19.80;7.70;;;;;;;4.02;100.00;101941.90;105905;1257;61171;-88
2024/02/28 06:52:44;;;;;;;21.50;8.50;;;;;;;4.14;100.00;101943.41;106396;1263;60366;-88
2024/02/28 06:55:18;;;;;;;26.30;10.10;;;;;;;4.26;100.00;101939.32;105961;1262;73820;-88
2024/02/28 06:57:52;;;;;;;23.50;9.50;;;;;;;4.38;100.00;101939.04;106298;1258;68761;-90
2024/02/28 07:00:26;;;;;;;22.10;8.90;;;;;;;4.44;100.00;101940.02;106168;1261;71322;-88
2024/02/28 07:03:00;;;;;;;25.90;9.20;;;;;;;4.51;100.00;101944.50;106114;1259;60887;-87
2024/02/28 07:05:33;;;;;;;19.60;8.10;;;;;;;4.60;100.00;101942.98;106229;1262;60463;-86
2024/02/28 07:08:10;;;;;;;17.30;8.90;;;;;;;4.74;100.00;101941.11;106253;1257;75345;-87
2024/02/28 07:10:47;;;;;;;24.00;9.50;;;;;;;4.88;100.00;101944.15;105949;1258;67559;-88
2024/02/28 07:13:21;;;;;;;17.10;9.00;;;;;;;4.97;100.00;101938.09;106143;1260;71666;-88
2024/02/28 07:15:57;;;;;;;23.40;9.40;;;;;;;4.95;100.00;101941.95;106118;1257;60440;-86
2024/02/28 07:18:31;;;;;;;25.30;9.90;;;;;;;5.06;100.00;101937.59;106217;1266;60463;-86
2024/02/28 07:21:06;;;;;;;22.80;9.80;;;;;;;5.19;100.00;101930.02;106175;1258;72377;-88
2024/02/28 07:23:40;;;;;;;25.40;9.60;;;;;;;5.28;100.00;101931.20;106161;1262;69321;-86
2024/02/28 07:26:15;;;;;;;21.80;9.60;;;;;;;5.33;99.56;101933.61;106251;1261;72689;-86
2024/02/28 07:28:59;;;;;;;19.40;9.00;;;;;;;5.40;98.64;101939.36;106011;1263;61350;-86
2024/02/28 07:31:34;;;;;;;18.30;8.70;;;;;;;5.45;96.48;101937.70;106154;1264;61937;-86
2024/02/28 07:34:17;;;;;;;20.40;8.50;;;;;;;5.51;94.75;101937.27;106180;1258;73453;-86
2024/02/28 07:36:53;;;;;;;22.20;8.50;;;;;;;5.52;94.46;101938.83;106292;1262;69831;-87
2024/02/28 07:39:27;;;;;;;20.40;8.60;;;;;;;5.72;93.41;101938.60;105941;1257;73756;-86
2024/02/28 07:42:01;;;;;;;45.20;11.40;;;;;;;5.83;92.02;101940.83;105973;1261;62420;-87
2024/02/28 07:44:35;;;;;;;20.90;10.60;;;;;;;5.95;92.07;101949.64;106186;1260;60464;-86
2024/02/28 07:47:09;;;;;;;23.50;11.20;;;;;;;6.10;91.23;101953.09;106116;1261;75560;-86
2024/02/28 07:49:43;;;;;;;20.80;8.30;;;;;;;6.20;89.37;101952.31;106090;1257;70877;-86
2024/02/28 07:52:17;;;;;;;21.70;9.80;;;;;;;6.26;87.27;101954.09;106125;1263;73594;-87
2024/02/28 07:54:51;;;;;;;23.30;11.90;;;;;;;6.35;88.05;101953.67;106288;1262;60546;-87
2024/02/28 07:57:25;;;;;;;25.20;9.50;;;;;;;6.49;86.57;101954.71;106174;1263;61310;-88
2024/02/28 07:59:59;;;;;;;30.10;17.30;;;;;;;6.53;83.84;101951.63;106319;1259;75031;-87
2024/02/28 08:02:33;;;;;;;23.40;11.70;;;;;;;6.65;83.40;101957.55;106358;1258;70339;-85
2024/02/28 08:05:07;;;;;;;28.00;14.00;;;;;;;6.82;80.82;101957.77;106355;1258;74761;-87
2024/02/28 08:07:42;;;;;;;30.90;17.80;;;;;;;6.90;78.90;101964.11;106110;1264;60569;-86
2024/02/28 08:10:19;;;;;;;34.10;19.40;;;;;;;6.96;79.01;101966.80;106489;1263;61264;-86
2024/02/28 08:12:59;;;;;;;26.80;15.00;;;;;;;7.05;76.49;101964.95;106333;1263;76053;-87
2024/02/28 08:15:39;;;;;;;16.50;8.50;;;;;;;7.14;75.57;101968.32;106319;1261;67240;-85
2024/02/28 08:18:15;;;;;;;20.00;7.70;;;;;;;7.28;75.18;101966.46;106179;1257;71653;-87
2024/02/28 08:20:53;;;;;;;29.10;11.60;;;;;;;7.40;75.47;101961.94;106019;1257;61513;-87
2024/02/28 08:23:32;;;;;;;11.60;6.50;;;;;;;7.49;75.26;101964.88;106111;1258;61103;-84
2024/02/28 08:26:14;;;;;;;18.20;5.90;;;;;;;7.54;74.04;101961.07;106021;1262;76076;-87
2024/02/28 08:28:49;;;;;;;13.60;4.80;;;;;;;7.68;73.29;101961.77;106142;1263;69260;-85
2024/02/28 08:31:32;;;;;;;16.90;7.70;;;;;;;7.79;71.84;101956.06;106254;1259;72874;-87
2024/02/28 08:34:10;;;;;;;15.50;6.50;;;;;;;7.92;70.58;101953.64;106227;1261;60544;-86
2024/02/28 08:36:55;;;;;;;13.40;4.90;;;;;;;7.96;69.38;101948.90;106110;1264;61615;-86
2024/02/28 08:39:37;;;;;;;14.10;3.60;;;;;;;8.03;68.10;101943.23;106296;1264;74512;-86
2024/02/28 08:42:28;;;;;;;14.30;4.10;;;;;;;8.10;67.71;101938.74;106111;1260;67393;-86
2024/02/28 08:45:08;;;;;;;13.10;4.50;;;;;;;8.18;68.15;101935.17;106159;1261;73908;-84
2024/02/28 08:47:53;;;;;;;15.80;4.70;;;;;;;8.26;66.63;101934.52;106027;1263;63003;-83
2024/02/28 08:50:37;;;;;;;13.20;4.20;;;;;;;8.30;65.02;101932.84;106012;1260;60670;-84
2024/02/28 08:53:26;;;;;;;16.60;6.00;;;;;;;8.41;64.67;101929.90;105889;1264;76080;-84
2024/02/28 08:56:10;;;;;;;17.40;6.00;;;;;;;8.55;63.82;101925.29;106050;1264;67286;-84
2024/02/28 08:58:56;;;;;;;21.20;9.50;;;;;;;8.69;64.17;101921.49;106076;1260;73196;-85
2024/02/28 09:01:43;;;;;;;16.30;6.50;;;;;;;8.83;64.38;101923.13;105906;1260;61212;-84
2024/02/28 09:05:08;;;;;;;17.30;5.90;;;;;;;8.91;64.22;101921.44;106124;1264;62271;-85
2024/02/28 09:07:43;;;;;;;17.80;6.10;;;;;;;9.04;64.74;101912.67;105844;1259;74913;-86
2024/02/28 09:10:21;;;;;;;10.80;5.20;;;;;;;9.16;63.82;101911.82;105931;1264;69122;-86
2024/02/28 09:12:55;;;;;;;15.90;6.40;;;;;;;9.29;63.29;101911.07;106003;1260;73913;-83
2024/02/28 09:15:29;;;;;;;26.80;10.10;;;;;;;9.41;62.55;101912.49;106192;1261;61308;-83
2024/02/28 09:18:03;;;;;;;14.20;6.20;;;;;;;9.53;60.85;101911.14;106172;1267;61136;-84
2024/02/28 09:20:37;;;;;;;18.90;5.80;;;;;;;9.66;61.85;101908.72;106138;1261;76884;-83
2024/02/28 09:23:11;;;;;;;16.70;5.40;;;;;;;9.67;63.01;101909.50;106025;1262;69805;-85
2024/02/28 09:25:45;;;;;;;14.20;5.70;;;;;;;9.52;64.87;101911.88;105915;1261;74117;-84
2024/02/28 09:28:19;;;;;;;16.60;7.40;;;;;;;9.37;68.49;101916.06;106350;1262;61367;-84
2024/02/28 09:30:53;;;;;;;13.50;4.90;;;;;;;9.25;69.59;101921.75;106041;1260;61410;-83
2024/02/28 09:33:27;;;;;;;12.40;4.90;;;;;;;9.14;70.07;101921.80;106335;1257;75581;-83
2024/02/28 09:36:03;;;;;;;9.90;4.40;;;;;;;9.11;72.31;101919.05;106051;1257;71189;-86
2024/02/28 09:38:37;;;;;;;19.70;4.70;;;;;;;9.12;71.62;101918.65;106183;1261;74549;-84
2024/02/28 09:41:14;;;;;;;17.70;4.70;;;;;;;9.07;72.17;101920.79;106106;1261;61276;-84
2024/02/28 09:43:48;;;;;;;17.10;5.00;;;;;;;8.99;73.49;101921.91;106294;1257;62121;-84
2024/02/28 09:46:22;;;;;;;11.00;4.40;;;;;;;8.96;73.14;101918.80;105994;1264;75972;-85
2024/02/28 09:48:56;;;;;;;13.70;4.90;;;;;;;8.91;74.21;101926.77;106076;1263;70710;-85
2024/02/28 09:51:35;;;;;;;13.60;4.70;;;;;;;8.82;77.73;101924.85;105929;1260;74268;-84
2024/02/28 09:54:09;;;;;;;13.50;4.90;;;;;;;8.81;76.26;101920.66;105999;1260;61286;-84
2024/02/28 09:56:42;;;;;;;14.90;5.10;;;;;;;8.81;75.97;101924.22;106074;1260;61304;-84
2024/02/28 09:59:20;;;;;;;21.90;5.60;;;;;;;8.76;77.81;101919.30;106085;1257;75785;-84
2024/02/28 10:02:02;;;;;;;15.80;5.10;;;;;;;8.80;78.45;101921.55;105921;1257;69395;-84
2024/02/28 10:04:36;;;;;;;10.50;4.00;;;;;;;8.82;77.14;101923.59;106064;1267;73246;-84
2024/02/28 10:07:13;;;;;;;15.50;4.60;;;;;;;8.81;78.03;101919.15;106162;1257;61477;-84
2024/02/28 10:09:47;;;;;;;15.80;4.70;;;;;;;8.75;81.04;101923.30;106460;1260;61974;-85
2024/02/28 10:12:21;;;;;;;11.20;4.20;;;;;;;8.66;83.99;101920.16;105969;1264;75951;-85
2024/02/28 10:14:55;;;;;;;16.00;4.30;;;;;;;8.65;86.39;101913.81;105962;1263;69821;-84
2024/02/28 10:17:30;;;;;;;16.00;4.70;;;;;;;8.66;84.74;101912.14;106049;1260;73513;-86
2024/02/28 10:20:04;;;;;;;14.90;4.80;;;;;;;8.60;82.08;101907.70;106090;1258;61389;-85
2024/02/28 10:22:38;;;;;;;17.50;4.40;;;;;;;8.69;84.19;101907.59;106127;1258;61569;-85
2024/02/28 10:25:13;;;;;;;14.90;4.70;;;;;;;8.73;81.95;101907.92;106108;1258;77145;-85
2024/02/28 10:27:47;;;;;;;14.40;5.50;;;;;;;8.68;84.52;101900.64;106229;1257;71403;-84
2024/02/28 10:30:21;;;;;;;10.10;3.50;;;;;;;8.70;84.89;101908.23;106214;1261;73791;-85
2024/02/28 10:32:56;;;;;;;15.80;4.10;;;;;;;8.75;83.72;101906.07;105960;1264;61554;-84
2024/02/28 10:35:30;;;;;;;10.50;4.10;;;;;;;8.85;81.86;101908.23;106134;1262;61685;-86
2024/02/28 10:38:04;;;;;;;16.00;5.40;;;;;;;8.91;79.81;101906.50;106183;1257;75408;-85
2024/02/28 10:40:38;;;;;;;15.20;4.90;;;;;;;9.11;76.68;101904.28;106337;1263;70667;-85
2024/02/28 10:43:12;;;;;;;15.10;4.70;;;;;;;8.97;76.62;101908.56;106022;1257;74677;-83
2024/02/28 10:45:46;;;;;;;12.50;4.50;;;;;;;8.92;77.16;101901.62;105938;1257;61360;-85
2024/02/28 10:48:46;;;;;;;14.40;5.50;;;;;;;8.80;77.21;101898.36;106081;1257;61634;-86
2024/02/28 10:51:28;;;;;;;24.20;6.00;;;;;;;8.83;79.82;101898.66;106147;1257;75574;-83
2024/02/28 10:54:14;;;;;;;20.50;5.70;;;;;;;8.96;79.21;101895.57;106193;1258;69624;-85
2024/02/28 10:56:54;;;;;;;13.90;5.50;;;;;;;9.00;78.81;101893.10;106140;1257;72445;-84
2024/02/28 10:59:35;;;;;;;24.30;5.90;;;;;;;8.86;80.48;101895.73;106163;1263;61346;-87
2024/02/28 11:02:15;;;;;;;17.30;5.80;;;;;;;8.92;80.72;101897.40;106043;1257;61593;-87
2024/02/28 11:05:01;;;;;;;19.20;4.90;;;;;;;8.88;80.31;101893.17;106030;1257;76368;-85
2024/02/28 11:07:41;;;;;;;16.00;5.30;;;;;;;8.90;78.30;101889.41;106133;1257;70116;-87
2024/02/28 11:10:15;;;;;;;14.90;6.10;;;;;;;8.78;77.84;101892.10;106056;1263;74789;-85
2024/02/28 11:13:00;;;;;;;13.50;4.70;;;;;;;8.92;78.80;101893.29;106043;1257;63717;-85
2024/02/28 11:15:35;;;;;;;15.40;5.30;;;;;;;8.90;79.77;101890.23;106366;1263;62164;-87
2024/02/28 11:18:16;;;;;;;12.20;4.50;;;;;;;8.84;79.53;101888.96;105946;1260;76800;-86
2024/02/28 11:20:50;;;;;;;16.10;5.30;;;;;;;8.71;82.16;101889.48;106262;1261;70840;-85
2024/02/28 11:23:27;;;;;;;16.50;5.40;;;;;;;8.79;83.34;101890.75;106364;1259;74901;-86
2024/02/28 11:26:06;;;;;;;16.20;5.50;;;;;;;8.61;83.87;101883.33;106301;1258;61516;-86
2024/02/28 11:28:47;;;;;;;18.00;5.30;;;;;;;8.60;84.17;101887.88;106085;1260;61360;-85
2024/02/28 11:31:21;;;;;;;15.40;4.60;;;;;;;8.66;83.47;101885.45;105933;1260;76729;-86
2024/02/28 11:33:55;;;;;;;12.10;4.90;;;;;;;8.69;83.11;101885.58;105983;1264;70230;-87
2024/02/28 11:36:29;;;;;;;15.70;4.40;;;;;;;8.73;80.54;101882.23;105926;1260;72801;-86
2024/02/28 11:39:03;;;;;;;10.40;4.40;;;;;;;8.78;80.32;101881.45;105998;1257;61148;-86